createdAt,value
2022-09-10T00:02:25.948Z,4.50
2022-09-10T00:04:55.203Z,4.80
2022-09-10T00:07:24.692Z,8.00
2022-09-10T00:09:53.846Z,5.10
2022-09-10T00:12:23.288Z,5.10
2022-09-10T00:14:54.527Z,4.90
2022-09-10T00:17:24.762Z,4.40
2022-09-10T00:19:54.414Z,5.20
2022-09-10T00:22:23.798Z,4.90
2022-09-10T00:24:59.628Z,4.70
2022-09-10T00:27:29.192Z,5.30
2022-09-10T00:29:58.887Z,5.50
2022-09-10T00:32:28.310Z,5.10
2022-09-10T00:34:57.613Z,4.70
2022-09-10T00:37:29.535Z,4.80
2022-09-10T00:39:58.966Z,5.20
2022-09-10T00:42:28.204Z,5.00
2022-09-10T00:45:03.608Z,4.90
2022-09-10T00:47:40.763Z,6.20
2022-09-10T00:50:35.919Z,6.10
2022-09-10T00:53:10.771Z,4.90
2022-09-10T00:55:45.021Z,5.90
2022-09-10T00:58:16.818Z,4.80
2022-09-10T01:00:46.581Z,4.90
2022-09-10T01:03:24.860Z,5.40
2022-09-10T01:05:55.975Z,4.90
2022-09-10T01:08:25.675Z,5.00
2022-09-10T01:11:22.119Z,4.90
2022-09-10T01:14:30.908Z,4.90
2022-09-10T01:17:39.881Z,6.20
2022-09-10T01:20:23.206Z,6.20
2022-09-10T01:23:38.628Z,5.60
2022-09-10T01:26:23.829Z,5.90
2022-09-10T01:29:37.924Z,5.20
2022-09-10T01:32:23.494Z,5.80
2022-09-10T01:35:15.732Z,4.90
2022-09-10T01:37:57.799Z,4.60
2022-09-10T01:40:31.030Z,7.20
2022-09-10T01:43:13.767Z,7.40
2022-09-10T01:46:20.250Z,9.10
2022-09-10T01:49:19.805Z,9.50
2022-09-10T01:52:01.056Z,5.70
2022-09-10T01:54:44.626Z,5.00
2022-09-10T01:57:24.915Z,6.50
2022-09-10T02:00:08.480Z,10.70
2022-09-10T02:03:05.121Z,7.00
2022-09-10T02:05:39.902Z,9.80
2022-09-10T02:08:21.660Z,5.70
2022-09-10T02:11:01.651Z,4.80
2022-09-10T02:13:31.940Z,5.50
2022-09-10T02:16:04.302Z,5.40
2022-09-10T02:18:35.423Z,5.40
2022-09-10T02:21:05.783Z,7.10
2022-09-10T02:23:52.123Z,7.60
2022-09-10T02:26:21.659Z,5.40
2022-09-10T02:28:51.624Z,5.50
2022-09-10T02:31:21.011Z,8.40
2022-09-10T02:33:50.223Z,6.60
2022-09-10T02:36:20.016Z,5.70
2022-09-10T02:38:49.185Z,7.20
2022-09-10T02:41:19.088Z,5.20
2022-09-10T02:43:48.317Z,5.60
2022-09-10T02:46:17.566Z,5.10
2022-09-10T02:48:46.795Z,8.30
2022-09-10T02:51:16.203Z,6.50
2022-09-10T02:53:45.494Z,5.20
2022-09-10T02:56:14.989Z,5.30
2022-09-10T02:58:45.073Z,5.40
2022-09-10T03:01:21.959Z,10.70
2022-09-10T03:03:56.603Z,7.70
2022-09-10T03:06:27.742Z,7.40
2022-09-10T03:08:58.421Z,7.10
2022-09-10T03:11:28.387Z,4.90
2022-09-10T03:13:57.960Z,7.00
2022-09-10T03:16:27.369Z,6.30
2022-09-10T03:18:56.757Z,4.80
2022-09-10T03:21:26.579Z,7.50
2022-09-10T03:23:57.643Z,5.80
2022-09-10T03:26:27.462Z,5.80
2022-09-10T03:28:56.985Z,6.50
2022-09-10T03:31:28.339Z,6.20
2022-09-10T03:33:58.586Z,6.20
2022-09-10T03:36:30.420Z,6.70
2022-09-10T03:39:00.993Z,7.80
2022-09-10T03:41:30.383Z,5.20
2022-09-10T03:44:00.092Z,6.90
2022-09-10T03:46:29.360Z,6.70
2022-09-10T03:48:59.686Z,7.80
2022-09-10T03:51:29.030Z,6.90
2022-09-10T03:53:58.243Z,6.70
2022-09-10T03:56:28.155Z,7.00
2022-09-10T03:58:58.422Z,7.30
2022-09-10T04:01:28.057Z,5.40
2022-09-10T04:03:59.390Z,6.80
2022-09-10T04:06:29.234Z,7.40
2022-09-10T04:08:58.409Z,6.10
2022-09-10T04:11:28.477Z,5.40
2022-09-10T04:13:57.982Z,4.70
2022-09-10T04:16:28.847Z,6.00
2022-09-10T04:18:58.279Z,5.70
2022-09-10T04:21:27.490Z,5.10
2022-09-10T04:24:03.216Z,5.50
2022-09-10T04:26:32.419Z,5.10
2022-09-10T04:29:01.480Z,7.00
2022-09-10T04:31:31.057Z,6.20
2022-09-10T04:34:02.429Z,5.90
2022-09-10T04:36:31.833Z,5.20
2022-09-10T04:39:01.111Z,6.90
2022-09-10T04:41:30.287Z,7.30
2022-09-10T04:44:00.105Z,7.30
2022-09-10T04:46:29.922Z,7.00
2022-09-10T04:48:59.178Z,5.30
2022-09-10T04:51:28.616Z,6.30
2022-09-10T04:53:59.038Z,7.10
2022-09-10T04:56:28.423Z,7.00
2022-09-10T04:58:58.058Z,5.10
2022-09-10T05:01:27.199Z,7.30
2022-09-10T05:03:56.614Z,13.80
2022-09-10T05:06:25.908Z,7.50
2022-09-10T05:08:55.955Z,6.80
2022-09-10T05:11:26.397Z,7.40
2022-09-10T05:13:55.561Z,6.20
2022-09-10T05:16:24.792Z,6.30
2022-09-10T05:18:54.419Z,5.90
2022-09-10T05:21:24.477Z,5.60
2022-09-10T05:23:53.749Z,7.90
2022-09-10T05:26:23.225Z,6.90
2022-09-10T05:28:54.268Z,5.30
2022-09-10T05:31:23.725Z,6.70
2022-09-10T05:33:53.177Z,5.60
2022-09-10T05:36:22.865Z,6.30
2022-09-10T05:38:52.149Z,7.40
2022-09-10T05:41:21.301Z,6.70
2022-09-10T05:43:51.010Z,8.60
2022-09-10T05:46:20.238Z,6.90
2022-09-10T05:48:50.132Z,7.50
2022-09-10T05:51:19.392Z,8.30
2022-09-10T05:53:48.757Z,6.20
2022-09-10T05:56:18.715Z,6.50
2022-09-10T05:58:49.205Z,8.60
2022-09-10T06:01:18.427Z,6.40
2022-09-10T06:03:47.854Z,5.90
2022-09-10T06:06:17.115Z,5.60
2022-09-10T06:08:46.043Z,6.30
2022-09-10T06:11:15.407Z,5.90
2022-09-10T06:13:44.906Z,6.70
2022-09-10T06:16:15.156Z,5.80
2022-09-10T06:18:46.337Z,5.50
2022-09-10T06:21:19.145Z,6.20
2022-09-10T06:23:48.823Z,6.40
2022-09-10T06:26:22.281Z,7.10
2022-09-10T06:28:51.554Z,6.20
2022-09-10T06:31:21.198Z,5.40
2022-09-10T06:33:50.627Z,7.10
2022-09-10T06:36:19.681Z,5.50
2022-09-10T06:38:50.925Z,5.70
2022-09-10T06:41:20.523Z,5.10
2022-09-10T06:43:50.078Z,5.20
2022-09-10T06:47:01.669Z,5.70
2022-09-10T06:49:13.477Z,5.70
2022-09-10T06:51:43.509Z,6.90
2022-09-10T06:54:13.816Z,5.70
2022-09-10T06:56:43.980Z,5.80
2022-09-10T06:59:15.634Z,5.40
2022-09-10T07:01:44.816Z,5.50
2022-09-10T07:04:13.899Z,6.20
2022-09-10T07:06:43.789Z,6.30
2022-09-10T07:09:13.010Z,5.30
2022-09-10T07:11:42.470Z,7.40
2022-09-10T07:14:15.209Z,5.80
2022-09-10T07:16:45.477Z,6.20
2022-09-10T07:19:16.058Z,5.80
2022-09-10T07:21:45.845Z,5.70
2022-09-10T07:24:15.562Z,5.10
2022-09-10T07:26:45.270Z,5.10
2022-09-10T07:29:14.691Z,5.30
2022-09-10T07:31:45.836Z,5.30
2022-09-10T07:34:15.333Z,5.80
2022-09-10T07:36:44.488Z,5.90
2022-09-10T07:39:13.589Z,6.40
2022-09-10T07:41:42.988Z,5.10
2022-09-10T07:44:13.185Z,6.90
2022-09-10T07:46:43.519Z,5.10
2022-09-10T07:49:13.053Z,5.80
2022-09-10T07:51:42.161Z,6.90
2022-09-10T07:54:11.482Z,5.40
2022-09-10T07:56:40.634Z,5.90
2022-09-10T07:59:10.098Z,5.60
2022-09-10T08:01:39.355Z,5.20
2022-09-10T08:04:08.612Z,6.60
2022-09-10T08:06:37.820Z,5.80
2022-09-10T08:09:10.795Z,5.60
2022-09-10T08:11:42.646Z,5.30
2022-09-10T08:14:11.680Z,5.10
2022-09-10T08:16:44.337Z,5.50
2022-09-10T08:19:16.142Z,5.20
2022-09-10T08:21:46.318Z,5.80
2022-09-10T08:24:15.906Z,5.20
2022-09-10T08:26:44.895Z,5.50
2022-09-10T08:29:14.840Z,5.10
2022-09-10T08:31:44.183Z,6.40
2022-09-10T08:34:14.795Z,5.20
2022-09-10T08:36:44.308Z,6.30
2022-09-10T08:39:14.665Z,4.70
2022-09-10T08:42:07.635Z,5.00
2022-09-10T08:44:59.891Z,5.80
2022-09-10T08:47:38.280Z,5.30
2022-09-10T08:50:21.289Z,4.70
2022-09-10T08:53:06.063Z,6.10
2022-09-10T08:55:39.448Z,5.30
2022-09-10T08:58:21.946Z,6.10
2022-09-10T09:01:02.727Z,5.00
2022-09-10T09:03:42.220Z,6.00
2022-09-10T09:06:26.035Z,5.40
2022-09-10T09:08:56.251Z,5.20
2022-09-10T09:11:43.227Z,5.50
2022-09-10T09:15:09.083Z,5.90
2022-09-10T09:18:23.051Z,4.80
2022-09-10T09:21:21.673Z,5.30
2022-09-10T09:24:12.765Z,5.30
2022-09-10T09:26:48.405Z,6.00
2022-09-10T09:29:34.693Z,6.30
2022-09-10T09:32:08.203Z,5.50
2022-09-10T09:34:39.912Z,5.20
2022-09-10T09:37:31.289Z,4.80
2022-09-10T09:40:26.603Z,5.10
2022-09-10T09:43:06.358Z,4.70
2022-09-10T09:45:44.959Z,5.50
2022-09-10T09:48:23.233Z,5.40
2022-09-10T09:51:04.475Z,5.70
2022-09-10T09:53:35.223Z,5.30
2022-09-10T09:56:13.224Z,5.00
2022-09-10T09:58:50.574Z,5.60
2022-09-10T10:01:24.652Z,5.80
2022-09-10T10:04:02.753Z,5.70
2022-09-10T10:06:35.719Z,6.20
2022-09-10T10:09:24.792Z,6.50
2022-09-10T10:12:07.119Z,5.60
2022-09-10T10:14:40.361Z,5.50
2022-09-10T10:17:42.169Z,5.70
2022-09-10T10:20:18.396Z,5.80
2022-09-10T10:22:52.039Z,5.20
2022-09-10T10:25:43.159Z,5.30
2022-09-10T10:28:26.902Z,5.70
2022-09-10T10:31:00.543Z,5.40
2022-09-10T10:33:35.718Z,6.00
2022-09-10T10:36:42.525Z,4.90
2022-09-10T10:39:50.129Z,5.60
2022-09-10T10:42:40.559Z,8.00
2022-09-10T10:45:39.446Z,5.70
2022-09-10T10:48:27.844Z,5.50
2022-09-10T10:51:46.087Z,6.50
2022-09-10T10:55:04.741Z,7.50
2022-09-10T10:58:03.026Z,6.90
2022-09-10T11:00:46.814Z,8.50
2022-09-10T11:03:54.308Z,9.60
2022-09-10T11:06:40.285Z,7.10
2022-09-10T11:09:14.959Z,7.60
2022-09-10T11:12:07.324Z,8.00
2022-09-10T11:15:06.269Z,7.80
2022-09-10T11:17:57.053Z,8.00
2022-09-10T11:20:45.351Z,7.80
2022-09-10T11:23:28.951Z,6.70
2022-09-10T11:26:16.188Z,7.20
2022-09-10T11:29:18.659Z,6.60
2022-09-10T11:32:21.978Z,6.40
2022-09-10T11:35:09.781Z,6.80
2022-09-10T11:37:47.304Z,6.70
2022-09-10T11:40:40.375Z,6.70
2022-09-10T11:43:28.275Z,6.60
2022-09-10T11:46:06.249Z,6.40
2022-09-10T11:49:04.636Z,8.10
2022-09-10T11:51:38.566Z,6.00
2022-09-10T11:54:28.467Z,6.30
2022-09-10T11:57:07.984Z,7.40
2022-09-10T12:00:16.794Z,8.10
2022-09-10T12:03:14.481Z,11.20
2022-09-10T12:06:24.913Z,6.00
2022-09-10T12:09:22.007Z,10.60
2022-09-10T12:12:24.114Z,7.60
2022-09-10T12:14:53.328Z,8.30
2022-09-10T12:17:38.159Z,7.20
2022-09-10T12:20:14.843Z,6.80
2022-09-10T12:22:45.063Z,8.00
2022-09-10T12:25:20.302Z,6.60
2022-09-10T12:28:02.319Z,6.60
2022-09-10T12:30:37.048Z,7.00
2022-09-10T12:33:15.098Z,7.40
2022-09-10T12:35:52.098Z,8.30
2022-09-10T12:39:22.403Z,6.50
2022-09-10T12:41:51.889Z,7.60
2022-09-10T12:44:39.583Z,7.60
2022-09-10T12:47:19.869Z,6.70
2022-09-10T12:50:03.848Z,6.50
2022-09-10T12:53:16.045Z,7.10
2022-09-10T12:56:00.685Z,6.40
2022-09-10T12:59:06.610Z,7.10
2022-09-10T13:01:47.329Z,7.50
2022-09-10T13:04:38.702Z,8.00
2022-09-10T13:07:33.467Z,6.90
2022-09-10T13:10:21.519Z,8.10
2022-09-10T13:12:56.188Z,8.10
2022-09-10T13:15:39.797Z,7.20
2022-09-10T13:18:24.105Z,6.80
2022-09-10T13:20:53.889Z,8.10
2022-09-10T13:23:49.163Z,9.80
2022-09-10T13:26:48.528Z,8.00
2022-09-10T13:29:37.819Z,8.20
2022-09-10T13:32:17.370Z,7.20
2022-09-10T13:35:30.200Z,7.60
2022-09-10T13:38:50.554Z,7.80
2022-09-10T13:41:40.545Z,7.70
2022-09-10T13:44:48.694Z,7.90
2022-09-10T13:47:50.218Z,7.80
2022-09-10T13:50:32.171Z,8.00
2022-09-10T13:53:05.369Z,6.90
2022-09-10T13:55:35.784Z,6.70
2022-09-10T13:58:19.776Z,7.70
2022-09-10T14:01:02.986Z,6.90
2022-09-10T14:03:38.787Z,7.80
2022-09-10T14:06:12.461Z,7.40
2022-09-10T14:08:52.814Z,9.20
2022-09-10T14:11:39.980Z,8.40
2022-09-10T14:14:24.455Z,7.70
2022-09-10T14:17:00.494Z,7.30
2022-09-10T14:20:02.388Z,7.80
2022-09-10T14:22:33.031Z,8.20
2022-09-10T14:25:05.153Z,8.00
2022-09-10T14:27:38.586Z,8.40
2022-09-10T14:30:30.886Z,7.80
2022-09-10T14:33:28.044Z,7.90
2022-09-10T14:35:59.861Z,7.80
2022-09-10T14:38:39.210Z,7.50
2022-09-10T14:41:20.337Z,8.20
2022-09-10T14:43:50.270Z,7.70
2022-09-10T14:46:59.902Z,7.90
2022-09-10T14:49:36.634Z,7.50
2022-09-10T14:52:08.787Z,8.40
2022-09-10T14:54:38.213Z,8.70
2022-09-10T14:57:16.281Z,7.70
2022-09-10T14:59:47.647Z,7.30
2022-09-10T15:02:26.317Z,7.40
2022-09-10T15:04:56.521Z,7.20
2022-09-10T15:07:26.106Z,8.20
2022-09-10T15:09:56.065Z,7.30
2022-09-10T15:12:31.245Z,8.60
2022-09-10T15:15:00.781Z,7.30
2022-09-10T15:17:30.578Z,7.50
2022-09-10T15:19:59.940Z,7.40
2022-09-10T15:22:31.506Z,7.40
2022-09-10T15:25:15.858Z,7.70
2022-09-10T15:27:45.542Z,8.30
2022-09-10T15:30:15.067Z,9.00
2022-09-10T15:32:44.315Z,8.80
2022-09-10T15:35:13.969Z,10.30
2022-09-10T15:37:43.595Z,8.50
2022-09-10T15:40:13.661Z,8.40
2022-09-10T15:42:43.018Z,7.30
2022-09-10T15:45:13.272Z,7.70
2022-09-10T15:47:43.339Z,8.40
2022-09-10T15:50:17.237Z,8.40
2022-09-10T15:52:46.769Z,7.50
2022-09-10T15:55:15.968Z,8.30
2022-09-10T15:57:45.749Z,7.60
2022-09-10T16:00:15.760Z,7.30
2022-09-10T16:02:48.918Z,7.90
2022-09-10T16:05:18.482Z,8.80
2022-09-10T16:07:49.118Z,7.40
2022-09-10T16:10:19.002Z,7.90
2022-09-10T16:12:48.176Z,8.10
2022-09-10T16:15:17.627Z,8.40
2022-09-10T16:17:47.579Z,9.80
2022-09-10T16:20:17.026Z,7.40
2022-09-10T16:22:46.080Z,9.00
2022-09-10T16:25:15.607Z,9.20
2022-09-10T16:27:46.255Z,8.80
2022-09-10T16:30:15.666Z,7.70
2022-09-10T16:32:44.734Z,7.80
2022-09-10T16:35:13.851Z,8.40
2022-09-10T16:37:43.035Z,9.00
2022-09-10T16:40:13.063Z,8.20
2022-09-10T16:42:42.309Z,8.60
2022-09-10T16:45:11.752Z,9.20
2022-09-10T16:47:41.083Z,7.90
2022-09-10T16:50:11.095Z,7.90
2022-09-10T16:52:40.361Z,7.90
2022-09-10T16:55:09.880Z,7.90
2022-09-10T16:57:38.954Z,8.00
2022-09-10T17:00:14.242Z,8.30
2022-09-10T17:02:44.230Z,8.00
2022-09-10T17:05:14.312Z,8.30
2022-09-10T17:07:43.620Z,8.90
2022-09-10T17:10:13.332Z,12.80
2022-09-10T17:12:44.809Z,7.60
2022-09-10T17:15:15.484Z,7.30
2022-09-10T17:17:47.537Z,8.10
2022-09-10T17:20:16.798Z,8.20
2022-09-10T17:22:46.331Z,8.00
2022-09-10T17:25:15.865Z,8.60
2022-09-10T17:27:45.196Z,8.90
2022-09-10T17:30:14.800Z,7.50
2022-09-10T17:32:43.783Z,7.70
2022-09-10T17:35:13.162Z,8.10
2022-09-10T17:37:42.786Z,9.60
2022-09-10T17:40:13.076Z,9.20
2022-09-10T17:42:43.367Z,8.70
2022-09-10T17:45:14.502Z,8.20
2022-09-10T17:47:43.689Z,9.10
2022-09-10T17:50:13.658Z,7.30
2022-09-10T17:52:49.626Z,8.60
2022-09-10T17:55:19.730Z,8.80
2022-09-10T17:57:49.141Z,8.80
2022-09-10T18:00:19.648Z,9.20
2022-09-10T18:02:49.100Z,9.20
2022-09-10T18:05:19.903Z,13.40
2022-09-10T18:07:49.419Z,8.90
2022-09-10T18:10:18.940Z,8.60
2022-09-10T18:12:48.321Z,9.10
2022-09-10T18:15:17.438Z,8.90
2022-09-10T18:17:47.036Z,11.00
2022-09-10T18:20:17.273Z,9.60
2022-09-10T18:22:46.665Z,9.70
2022-09-10T18:25:15.748Z,9.70
2022-09-10T18:27:46.624Z,8.70
2022-09-10T18:30:16.404Z,10.90
2022-09-10T18:32:45.607Z,11.30
2022-09-10T18:35:15.062Z,10.90
2022-09-10T18:37:44.336Z,16.30
2022-09-10T18:40:13.725Z,10.20
2022-09-10T18:42:46.635Z,10.70
2022-09-10T18:45:16.322Z,11.20
2022-09-10T18:47:46.108Z,12.70
2022-09-10T18:50:15.467Z,12.30
2022-09-10T18:52:44.764Z,12.00
2022-09-10T18:55:14.330Z,11.60
2022-09-10T18:57:44.193Z,12.30
2022-09-10T19:00:14.394Z,15.10
2022-09-10T19:02:46.859Z,13.20
2022-09-10T19:05:16.368Z,11.20
2022-09-10T19:07:47.959Z,11.40
2022-09-10T19:10:17.441Z,11.20
2022-09-10T19:12:46.690Z,12.30
2022-09-10T19:15:15.955Z,11.90
2022-09-10T19:17:45.307Z,12.90
2022-09-10T19:20:14.430Z,11.90
2022-09-10T19:22:43.971Z,12.40
2022-09-10T19:25:13.356Z,11.70
2022-09-10T19:27:43.346Z,11.20
2022-09-10T19:30:13.484Z,12.10
2022-09-10T19:32:42.931Z,12.50
2022-09-10T19:35:12.647Z,12.50
2022-09-10T19:37:42.367Z,11.60
2022-09-10T19:40:12.982Z,11.70
2022-09-10T19:42:43.256Z,11.80
2022-09-10T19:45:13.684Z,11.50
2022-09-10T19:47:44.183Z,11.60
2022-09-10T19:50:13.389Z,12.80
2022-09-10T19:52:42.420Z,11.80
2022-09-10T19:55:13.988Z,11.50
2022-09-10T19:57:44.297Z,11.80
2022-09-10T20:00:36.167Z,11.30
2022-09-10T20:03:04.027Z,12.70
2022-09-10T20:05:35.161Z,13.00
2022-09-10T20:08:05.546Z,12.00
2022-09-10T20:10:37.961Z,14.00
2022-09-10T20:13:09.318Z,11.60
2022-09-10T20:15:45.336Z,12.90
2022-09-10T20:18:15.515Z,12.90
2022-09-10T20:20:44.740Z,12.90
2022-09-10T20:23:13.979Z,11.90
2022-09-10T20:25:44.435Z,13.70
2022-09-10T20:28:15.580Z,13.70
2022-09-10T20:30:44.924Z,12.10
2022-09-10T20:33:14.157Z,11.30
2022-09-10T20:35:46.124Z,12.30
2022-09-10T20:38:15.813Z,13.20
2022-09-10T20:40:45.059Z,11.90
2022-09-10T20:43:14.728Z,12.50
2022-09-10T20:45:47.655Z,11.60
2022-09-10T20:48:16.807Z,12.40
2022-09-10T20:51:02.198Z,12.80
2022-09-10T20:53:35.831Z,12.50
2022-09-10T20:56:09.132Z,11.90
2022-09-10T20:58:40.371Z,12.50
2022-09-10T21:01:22.351Z,13.00
2022-09-10T21:03:54.642Z,13.50
2022-09-10T21:06:32.468Z,13.00
2022-09-10T21:09:03.537Z,13.00
2022-09-10T21:11:35.673Z,13.30
2022-09-10T21:14:08.126Z,14.40
2022-09-10T21:16:40.750Z,12.40
2022-09-10T21:19:17.121Z,12.40
2022-09-10T21:21:49.831Z,13.80
2022-09-10T21:24:23.480Z,13.00
2022-09-10T21:26:54.579Z,12.80
2022-09-10T21:29:24.183Z,12.30
2022-09-10T21:31:55.658Z,12.50
2022-09-10T21:34:25.356Z,13.80
2022-09-10T21:36:54.519Z,12.20
2022-09-10T21:39:23.805Z,12.30
2022-09-10T21:41:53.113Z,11.50
2022-09-10T21:44:25.951Z,12.90
2022-09-10T21:46:55.562Z,13.10
2022-09-10T21:49:25.045Z,13.70
2022-09-10T21:51:54.353Z,12.00
2022-09-10T21:54:25.263Z,13.10
2022-09-10T21:56:54.659Z,12.60
2022-09-10T21:59:26.776Z,12.30
2022-09-10T22:01:56.111Z,12.40
2022-09-10T22:04:28.448Z,11.80
2022-09-10T22:06:58.679Z,12.50
2022-09-10T22:09:28.290Z,11.80
2022-09-10T22:12:00.234Z,12.60
2022-09-10T22:14:29.375Z,12.70
2022-09-10T22:17:00.028Z,12.00
2022-09-10T22:19:29.607Z,11.60
2022-09-10T22:21:58.839Z,11.60
2022-09-10T22:24:28.037Z,11.50
2022-09-10T22:26:57.210Z,11.90
2022-09-10T22:29:26.472Z,11.50
2022-09-10T22:31:55.727Z,11.40
2022-09-10T22:34:25.236Z,11.80
2022-09-10T22:36:54.440Z,11.90
2022-09-10T22:39:24.199Z,11.50
2022-09-10T22:41:53.994Z,11.50
2022-09-10T22:44:24.292Z,10.60
2022-09-10T22:46:53.519Z,10.40
2022-09-10T22:49:22.966Z,11.00
2022-09-10T22:51:52.315Z,11.20
2022-09-10T22:54:21.644Z,11.10
2022-09-10T22:56:50.757Z,10.30
2022-09-10T22:59:19.854Z,11.70
2022-09-10T23:01:49.173Z,10.90
2022-09-10T23:04:18.483Z,9.90
2022-09-10T23:06:47.598Z,10.70
2022-09-10T23:09:19.194Z,10.10
2022-09-10T23:11:48.669Z,10.30
2022-09-10T23:14:23.109Z,9.90
2022-09-10T23:16:52.833Z,10.00
2022-09-10T23:19:26.079Z,10.80
2022-09-10T23:21:56.771Z,9.30
2022-09-10T23:24:27.565Z,10.80
2022-09-10T23:26:57.027Z,10.20
2022-09-10T23:29:26.378Z,9.50
2022-09-10T23:31:55.845Z,9.70
2022-09-10T23:34:25.291Z,10.00
2022-09-10T23:36:54.802Z,9.10
2022-09-10T23:39:26.533Z,9.60
2022-09-10T23:41:59.292Z,9.80
2022-09-10T23:44:29.805Z,9.60
2022-09-10T23:46:58.973Z,10.70
2022-09-10T23:49:28.656Z,9.10
2022-09-10T23:51:57.789Z,9.10
2022-09-10T23:54:27.126Z,10.40
2022-09-10T23:56:56.436Z,8.40
2022-09-10T23:59:26.268Z,8.50
